createdAt,value
2024-02-02T00:01:07.421Z,19.00
2024-02-02T00:03:31.380Z,15.37
2024-02-02T00:05:55.162Z,14.27
2024-02-02T00:08:19.073Z,16.60
2024-02-02T00:10:44.529Z,19.88
2024-02-02T00:13:08.535Z,16.43
2024-02-02T00:15:32.596Z,14.05
2024-02-02T00:17:56.634Z,19.27
2024-02-02T00:20:20.563Z,11.33
2024-02-02T00:22:44.370Z,11.00
2024-02-02T00:25:09.108Z,20.00
2024-02-02T00:27:34.339Z,16.27
2024-02-02T00:29:58.161Z,22.23
2024-02-02T00:32:21.951Z,15.57
2024-02-02T00:34:45.775Z,17.93
2024-02-02T00:37:10.067Z,16.70
2024-02-02T00:39:33.902Z,14.20
2024-02-02T00:41:57.750Z,17.80
2024-02-02T00:44:22.833Z,27.57
2024-02-02T00:46:46.917Z,22.75
2024-02-02T00:49:10.709Z,19.23
2024-02-02T00:51:34.606Z,17.70
2024-02-02T00:53:58.475Z,20.57
2024-02-02T00:56:22.335Z,13.83
2024-02-02T00:58:46.052Z,21.07
2024-02-02T01:01:11.285Z,17.30
2024-02-02T01:03:38.742Z,12.23
2024-02-02T01:06:02.858Z,13.60
2024-02-02T01:08:27.261Z,21.67
2024-02-02T01:10:51.192Z,21.10
2024-02-02T01:13:15.285Z,17.90
2024-02-02T01:15:39.384Z,9.90
2024-02-02T01:18:08.753Z,15.47
2024-02-02T01:20:32.723Z,14.00
2024-02-02T01:22:56.406Z,27.53
2024-02-02T01:25:20.853Z,15.53
2024-02-02T01:27:45.489Z,21.43
2024-02-02T01:30:13.004Z,19.13
2024-02-02T01:32:37.286Z,17.60
2024-02-02T01:35:02.612Z,19.13
2024-02-02T01:37:26.473Z,12.37
2024-02-02T01:39:50.224Z,22.13
2024-02-02T01:42:14.433Z,20.63
2024-02-02T01:47:02.133Z,15.20
2024-02-02T01:49:26.215Z,15.10
2024-02-02T01:51:51.395Z,17.60
2024-02-02T01:54:15.422Z,21.87
2024-02-02T01:56:39.902Z,18.10
2024-02-02T01:59:04.694Z,25.30
2024-02-02T02:01:29.651Z,20.90
2024-02-02T02:03:54.117Z,25.90
2024-02-02T02:06:18.249Z,24.37
2024-02-02T02:08:43.562Z,17.83
2024-02-02T02:11:08.817Z,10.23
2024-02-02T02:13:33.067Z,15.52
2024-02-02T02:15:56.946Z,14.73
2024-02-02T02:18:20.935Z,16.23
2024-02-02T02:20:45.608Z,17.13
2024-02-02T02:23:12.763Z,18.33
2024-02-02T02:25:36.488Z,22.57
2024-02-02T02:28:00.272Z,18.00
2024-02-02T02:30:24.149Z,19.23
2024-02-02T02:32:48.075Z,19.83
2024-02-02T02:35:12.273Z,15.33
2024-02-02T02:37:36.063Z,19.88
2024-02-02T02:40:01.220Z,20.23
2024-02-02T02:42:25.116Z,15.70
2024-02-02T02:44:48.919Z,16.35
2024-02-02T02:47:12.891Z,23.40
2024-02-02T02:49:36.769Z,19.73
2024-02-02T02:52:01.061Z,23.63
2024-02-02T02:54:25.202Z,16.90
2024-02-02T02:56:50.535Z,19.73
2024-02-02T02:59:17.739Z,17.30
2024-02-02T03:01:41.513Z,16.90
2024-02-02T03:04:05.678Z,18.83
2024-02-02T03:06:29.583Z,16.90
2024-02-02T03:08:53.416Z,22.67
2024-02-02T03:11:17.406Z,18.80
2024-02-02T03:13:42.770Z,13.83
2024-02-02T03:16:08.053Z,19.57
2024-02-02T03:18:31.889Z,24.17
2024-02-02T03:20:55.870Z,21.73
2024-02-02T03:23:19.636Z,19.48
2024-02-02T03:25:43.523Z,17.83
2024-02-02T03:28:07.607Z,18.63
2024-02-02T03:30:32.958Z,21.00
2024-02-02T03:32:56.919Z,15.17
2024-02-02T03:35:20.775Z,21.75
2024-02-02T03:37:44.464Z,17.10
2024-02-02T03:40:10.300Z,23.35
2024-02-02T03:42:34.133Z,18.07
2024-02-02T03:44:58.912Z,19.10
2024-02-02T03:47:25.359Z,17.02
2024-02-02T03:49:49.218Z,19.63
2024-02-02T03:52:13.052Z,20.50
2024-02-02T03:54:37.281Z,15.17
2024-02-02T03:57:02.746Z,13.33
2024-02-02T03:59:26.650Z,20.53
2024-02-02T04:01:50.455Z,17.77
2024-02-02T04:04:15.954Z,24.43
2024-02-02T04:06:39.921Z,16.70
2024-02-02T04:09:04.162Z,19.60
2024-02-02T04:11:28.107Z,20.33
2024-02-02T04:13:51.956Z,21.43
2024-02-02T04:16:15.675Z,25.00
2024-02-02T04:18:39.603Z,14.80
2024-02-02T04:21:05.128Z,19.50
2024-02-02T04:23:30.636Z,19.67
2024-02-02T04:25:54.470Z,16.13
2024-02-02T04:28:18.280Z,24.23
2024-02-02T04:30:42.052Z,20.00
2024-02-02T04:33:07.752Z,16.40
2024-02-02T04:35:35.864Z,24.20
2024-02-02T04:38:01.352Z,16.85
2024-02-02T04:40:25.519Z,20.67
2024-02-02T04:42:49.410Z,17.95
2024-02-02T04:45:13.327Z,18.87
2024-02-02T04:47:37.208Z,18.80
2024-02-02T04:50:00.953Z,21.10
2024-02-02T04:52:24.794Z,21.57
2024-02-02T04:54:50.217Z,17.20
2024-02-02T04:57:14.161Z,22.67
2024-02-02T04:59:37.973Z,21.55
2024-02-02T05:02:05.818Z,20.77
2024-02-02T05:04:30.237Z,16.50
2024-02-02T05:06:54.025Z,18.73
2024-02-02T05:09:17.801Z,16.48
2024-02-02T05:11:42.939Z,18.77
2024-02-02T05:14:06.618Z,19.97
2024-02-02T05:16:30.364Z,18.33
2024-02-02T05:18:54.165Z,19.23
2024-02-02T05:21:18.006Z,18.50
2024-02-02T05:23:48.584Z,17.37
2024-02-02T05:26:13.498Z,16.80
2024-02-02T05:28:38.620Z,18.07
2024-02-02T05:31:02.587Z,12.93
2024-02-02T05:33:26.451Z,13.10
2024-02-02T05:35:50.501Z,19.58
2024-02-02T05:38:14.389Z,20.15
2024-02-02T05:40:38.131Z,17.47
2024-02-02T05:43:02.384Z,19.60
2024-02-02T05:45:27.716Z,17.80
2024-02-02T05:47:51.622Z,20.67
2024-02-02T05:50:15.622Z,22.03
2024-02-02T05:52:39.365Z,22.93
2024-02-02T05:55:03.318Z,25.67
2024-02-02T05:57:27.181Z,20.37
2024-02-02T05:59:51.581Z,17.27
2024-02-02T06:02:16.721Z,23.70
2024-02-02T06:04:40.508Z,25.83
2024-02-02T06:07:04.540Z,20.27
2024-02-02T06:09:28.551Z,20.03
2024-02-02T06:11:52.378Z,22.57
2024-02-02T06:14:16.185Z,23.38
2024-02-02T06:16:39.872Z,20.60
2024-02-02T06:19:05.182Z,23.43
2024-02-02T06:21:29.008Z,16.60
2024-02-02T06:23:52.858Z,17.83
2024-02-02T06:26:16.646Z,22.90
2024-02-02T06:28:40.429Z,15.43
2024-02-02T06:31:04.171Z,14.30
2024-02-02T06:33:28.416Z,20.50
2024-02-02T06:35:53.686Z,23.13
2024-02-02T06:38:17.634Z,25.93
2024-02-02T06:40:41.439Z,17.63
2024-02-02T06:43:05.519Z,14.90
2024-02-02T06:45:29.390Z,16.67
2024-02-02T06:47:53.596Z,13.87
2024-02-02T06:50:17.484Z,20.83
2024-02-02T06:52:42.855Z,22.13
2024-02-02T06:55:07.224Z,22.37
2024-02-02T06:57:33.037Z,21.10
2024-02-02T06:59:59.141Z,20.23
2024-02-02T07:02:25.729Z,22.15
2024-02-02T07:04:50.856Z,18.17
2024-02-02T07:07:15.122Z,16.63
2024-02-02T07:09:41.021Z,20.27
2024-02-02T07:12:08.246Z,16.97
2024-02-02T07:14:48.995Z,23.27
2024-02-02T07:17:36.140Z,19.13
2024-02-02T07:20:00.181Z,17.87
2024-02-02T07:22:35.663Z,15.53
2024-02-02T07:25:00.948Z,20.53
2024-02-02T07:27:48.938Z,27.37
2024-02-02T07:30:15.850Z,25.40
2024-02-02T07:32:39.727Z,14.35
2024-02-02T07:35:05.338Z,25.50
2024-02-02T07:37:49.241Z,16.00
2024-02-02T07:41:01.076Z,22.93
2024-02-02T07:43:25.150Z,17.77
2024-02-02T07:45:49.263Z,15.17
2024-02-02T07:48:13.584Z,19.57
2024-02-02T07:50:37.562Z,24.03
2024-02-02T07:53:01.722Z,19.60
2024-02-02T07:55:27.863Z,13.77
2024-02-02T07:57:51.700Z,23.35
2024-02-02T08:00:17.348Z,15.00
2024-02-02T08:02:41.395Z,15.57
2024-02-02T08:05:09.453Z,18.53
2024-02-02T08:07:33.416Z,14.18
2024-02-02T08:09:57.136Z,14.03
2024-02-02T08:12:22.569Z,18.83
2024-02-02T08:14:46.291Z,25.93
2024-02-02T08:17:11.078Z,20.53
2024-02-02T08:19:37.840Z,20.80
2024-02-02T08:22:02.596Z,14.90
2024-02-02T08:24:26.349Z,24.23
2024-02-02T08:26:50.223Z,17.50
2024-02-02T08:29:17.999Z,22.85
2024-02-02T08:31:45.946Z,18.40
2024-02-02T08:34:09.865Z,23.00
2024-02-02T08:36:33.709Z,20.50
2024-02-02T08:38:57.886Z,13.45
2024-02-02T08:41:21.860Z,21.00
2024-02-02T08:43:46.651Z,15.57
2024-02-02T08:46:12.216Z,19.10
2024-02-02T08:48:41.826Z,16.55
2024-02-02T08:51:48.412Z,10.43
2024-02-02T08:54:39.287Z,17.20
2024-02-02T08:57:33.065Z,15.90
2024-02-02T08:59:56.986Z,15.55
2024-02-02T09:02:52.536Z,17.13
2024-02-02T09:05:24.093Z,15.65
2024-02-02T09:07:54.120Z,18.27
2024-02-02T09:11:22.919Z,19.48
2024-02-02T09:13:47.045Z,19.67
2024-02-02T09:16:10.957Z,13.30
2024-02-02T09:18:39.952Z,19.73
2024-02-02T09:21:05.772Z,19.38
2024-02-02T09:23:30.406Z,25.70
2024-02-02T09:25:54.224Z,11.25
2024-02-02T09:28:43.156Z,20.60
2024-02-02T09:31:08.741Z,22.67
2024-02-02T09:33:48.150Z,21.90
2024-02-02T09:36:13.516Z,20.05
2024-02-02T09:38:38.227Z,18.92
2024-02-02T09:41:39.688Z,20.80
2024-02-02T09:44:19.129Z,20.50
2024-02-02T09:46:50.199Z,28.52
2024-02-02T09:49:29.161Z,22.75
2024-02-02T09:52:04.338Z,17.35
2024-02-02T09:54:39.067Z,17.15
2024-02-02T09:57:14.684Z,25.73
2024-02-02T09:59:52.749Z,14.77
2024-02-02T10:02:45.883Z,19.60
2024-02-02T10:05:21.342Z,15.50
2024-02-02T10:08:00.843Z,18.13
2024-02-02T10:10:46.706Z,15.40
2024-02-02T10:13:23.212Z,16.77
2024-02-02T10:16:15.172Z,19.65
2024-02-02T10:19:21.132Z,17.67
2024-02-02T10:22:00.857Z,18.15
2024-02-02T10:24:46.438Z,14.13
2024-02-02T10:27:34.743Z,17.45
2024-02-02T10:30:09.621Z,19.42
2024-02-02T10:33:04.097Z,22.75
2024-02-02T10:35:45.429Z,20.02
2024-02-02T10:38:24.751Z,13.32
2024-02-02T10:40:59.302Z,14.90
2024-02-02T10:43:34.846Z,16.30
2024-02-02T10:46:16.570Z,14.25
2024-02-02T10:49:05.857Z,13.65
2024-02-02T10:51:37.956Z,12.00
2024-02-02T10:54:21.704Z,8.35
2024-02-02T10:57:09.068Z,10.88
2024-02-02T10:59:45.431Z,19.00
2024-02-02T11:02:21.322Z,16.45
2024-02-02T11:04:58.402Z,16.13
2024-02-02T11:07:29.331Z,10.98
2024-02-02T11:10:02.234Z,9.95
2024-02-02T11:12:38.334Z,14.60
2024-02-02T11:15:22.614Z,10.75
2024-02-02T11:17:59.278Z,9.63
2024-02-02T11:20:36.117Z,9.80
2024-02-02T11:23:06.235Z,11.38
2024-02-02T11:25:40.472Z,10.40
2024-02-02T11:28:16.850Z,11.85
2024-02-02T11:30:59.737Z,9.40
2024-02-02T11:33:51.536Z,9.02
2024-02-02T11:36:30.718Z,15.77
2024-02-02T11:39:11.906Z,8.95
2024-02-02T11:41:40.376Z,14.65
2024-02-02T11:44:05.567Z,9.18
2024-02-02T11:46:31.500Z,8.52
2024-02-02T11:49:08.677Z,17.73
2024-02-02T11:51:33.126Z,7.68
2024-02-02T11:54:04.459Z,10.35
2024-02-02T11:56:37.088Z,12.95
2024-02-02T11:59:07.591Z,9.48
2024-02-02T12:01:48.860Z,11.63
2024-02-02T12:04:30.865Z,7.95
2024-02-02T12:07:19.279Z,14.70
2024-02-02T12:09:48.778Z,10.55
2024-02-02T12:12:19.623Z,13.48
2024-02-02T12:14:52.124Z,10.43
2024-02-02T12:17:16.442Z,9.52
2024-02-02T12:19:40.342Z,11.80
2024-02-02T12:22:04.212Z,13.95
2024-02-02T12:24:30.025Z,12.85
2024-02-02T12:26:53.927Z,16.42
2024-02-02T12:29:19.470Z,10.38
2024-02-02T12:31:43.499Z,10.07
2024-02-02T12:34:08.045Z,14.43
2024-02-02T12:36:32.011Z,14.55
2024-02-02T12:39:00.095Z,7.78
2024-02-02T12:41:23.900Z,21.15
2024-02-02T12:43:49.188Z,48.85
2024-02-02T12:46:14.995Z,43.13
2024-02-02T12:48:38.837Z,16.83
2024-02-02T12:51:02.792Z,12.18
2024-02-02T12:53:26.607Z,13.63
2024-02-02T12:55:50.494Z,15.07
2024-02-02T12:58:14.272Z,21.67
2024-02-02T13:00:38.255Z,12.70
2024-02-02T13:03:06.362Z,12.88
2024-02-02T13:05:30.315Z,14.25
2024-02-02T13:07:54.052Z,10.68
2024-02-02T13:10:35.979Z,18.50
2024-02-02T13:12:59.738Z,18.20
2024-02-02T13:15:23.520Z,10.10
2024-02-02T13:18:04.113Z,15.73
2024-02-02T13:20:34.317Z,17.33
2024-02-02T13:23:07.094Z,15.70
2024-02-02T13:25:33.015Z,16.20
2024-02-02T13:27:57.092Z,18.05
2024-02-02T13:30:27.970Z,13.38
2024-02-02T13:32:53.602Z,11.30
2024-02-02T13:35:24.272Z,15.18
2024-02-02T13:37:51.754Z,14.98
2024-02-02T13:40:16.417Z,14.30
2024-02-02T13:42:41.548Z,14.75
2024-02-02T13:45:16.416Z,16.58
2024-02-02T13:47:41.108Z,15.52
2024-02-02T13:50:07.715Z,19.45
2024-02-02T13:52:32.936Z,12.73
2024-02-02T13:54:56.917Z,19.15
2024-02-02T13:57:21.172Z,17.90
2024-02-02T13:59:44.304Z,15.25
2024-02-02T14:02:08.866Z,17.45
2024-02-02T14:04:32.681Z,13.57
2024-02-02T14:06:56.596Z,18.60
2024-02-02T14:09:24.262Z,13.88
2024-02-02T14:11:48.122Z,16.08
2024-02-02T14:14:11.865Z,18.20
2024-02-02T14:16:35.630Z,18.73
2024-02-02T14:19:03.145Z,18.17
2024-02-02T14:21:31.323Z,13.55
2024-02-02T14:23:55.129Z,20.20
2024-02-02T14:26:20.337Z,22.23
2024-02-02T14:28:44.039Z,21.25
2024-02-02T14:31:08.056Z,21.70
2024-02-02T14:33:32.136Z,23.60
2024-02-02T14:35:56.554Z,21.90
2024-02-02T14:38:20.283Z,15.10
2024-02-02T14:40:44.171Z,19.48
2024-02-02T14:43:09.394Z,17.70
2024-02-02T14:45:34.701Z,17.80
2024-02-02T14:47:58.951Z,22.52
2024-02-02T14:50:25.188Z,17.27
2024-02-02T14:52:49.063Z,18.60
2024-02-02T14:55:13.349Z,16.70
2024-02-02T14:57:37.118Z,18.90
2024-02-02T15:00:11.169Z,21.45
2024-02-02T15:02:34.991Z,17.85
2024-02-02T15:05:02.355Z,17.70
2024-02-02T15:07:27.383Z,17.60
2024-02-02T15:09:52.090Z,17.60
2024-02-02T15:12:15.990Z,19.20
2024-02-02T15:14:39.830Z,21.65
2024-02-02T15:17:05.584Z,19.63
2024-02-02T15:19:29.617Z,19.23
2024-02-02T15:21:53.906Z,20.63
2024-02-02T15:24:17.830Z,22.40
2024-02-02T15:26:42.145Z,17.23
2024-02-02T15:29:05.864Z,23.02
2024-02-02T15:31:29.650Z,17.70
2024-02-02T15:33:54.888Z,17.33
2024-02-02T15:36:18.816Z,24.38
2024-02-02T15:38:59.970Z,19.40
2024-02-02T15:41:27.563Z,23.20
2024-02-02T15:43:51.255Z,17.20
2024-02-02T15:46:15.965Z,19.35
2024-02-02T15:48:39.807Z,17.77
2024-02-02T15:51:06.168Z,21.83
2024-02-02T15:53:30.068Z,19.45
2024-02-02T15:55:54.184Z,17.63
2024-02-02T15:58:18.000Z,18.48
2024-02-02T16:00:41.980Z,23.35
2024-02-02T16:03:06.432Z,21.35
2024-02-02T16:05:30.607Z,19.48
2024-02-02T16:07:55.701Z,19.13
2024-02-02T16:10:19.728Z,17.67
2024-02-02T16:12:43.573Z,13.65
2024-02-02T16:15:09.810Z,19.33
2024-02-02T16:17:34.252Z,19.40
2024-02-02T16:19:58.164Z,20.00
2024-02-02T16:22:22.858Z,25.40
2024-02-02T16:24:48.298Z,16.88
2024-02-02T16:27:12.157Z,18.85
2024-02-02T16:29:38.054Z,21.35
2024-02-02T16:32:02.195Z,17.27
2024-02-02T16:34:26.111Z,15.07
2024-02-02T16:36:50.081Z,17.02
2024-02-02T16:39:15.169Z,13.73
2024-02-02T16:41:40.815Z,14.10
2024-02-02T16:44:04.726Z,21.70
2024-02-02T16:46:28.425Z,22.20
2024-02-02T16:48:52.331Z,20.27
2024-02-02T16:51:19.332Z,22.65
2024-02-02T16:53:43.841Z,21.33
2024-02-02T16:56:08.242Z,27.30
2024-02-02T16:58:33.484Z,24.63
2024-02-02T17:00:59.439Z,21.27
2024-02-02T17:03:24.728Z,21.98
2024-02-02T17:05:48.601Z,24.05
2024-02-02T17:08:12.372Z,22.65
2024-02-02T17:10:36.472Z,21.55
2024-02-02T17:13:00.497Z,27.15
2024-02-02T17:15:25.903Z,26.77
2024-02-02T17:17:49.862Z,24.15
2024-02-02T17:20:16.076Z,27.15
2024-02-02T17:22:44.375Z,29.42
2024-02-02T17:25:09.159Z,27.35
2024-02-02T17:27:33.064Z,29.27
2024-02-02T17:29:56.861Z,28.20
2024-02-02T17:32:23.680Z,27.52
2024-02-02T17:34:49.851Z,27.50
2024-02-02T17:37:13.947Z,29.70
2024-02-02T17:39:41.044Z,33.85
2024-02-02T17:42:05.378Z,28.77
2024-02-02T17:44:29.329Z,29.35
2024-02-02T17:46:53.747Z,27.50
2024-02-02T17:49:19.074Z,29.75
2024-02-02T17:51:43.013Z,24.98
2024-02-02T17:54:07.298Z,33.67
2024-02-02T17:56:31.198Z,36.45
2024-02-02T17:58:56.727Z,32.10
2024-02-02T18:01:20.733Z,28.20
2024-02-02T18:03:44.530Z,25.75
2024-02-02T18:06:10.212Z,33.85
2024-02-02T18:08:33.985Z,28.20
2024-02-02T18:10:57.770Z,28.20
2024-02-02T18:13:21.722Z,32.35
2024-02-02T18:15:45.590Z,29.08
2024-02-02T18:18:09.721Z,26.58
2024-02-02T18:20:33.598Z,26.70
2024-02-02T18:22:58.897Z,28.65
2024-02-02T18:25:26.793Z,26.90
2024-02-02T18:27:50.897Z,24.65
2024-02-02T18:30:15.983Z,24.27
2024-02-02T18:32:39.790Z,20.70
2024-02-02T18:35:03.678Z,26.23
2024-02-02T18:37:27.718Z,22.85
2024-02-02T18:39:53.213Z,23.65
2024-02-02T18:42:16.987Z,19.83
2024-02-02T18:44:40.737Z,21.95
2024-02-02T18:47:05.146Z,18.35
2024-02-02T18:49:29.028Z,23.38
2024-02-02T18:51:52.929Z,18.75
2024-02-02T18:54:16.902Z,25.83
2024-02-02T18:56:42.495Z,16.50
2024-02-02T18:59:07.248Z,24.70
2024-02-02T19:01:33.639Z,20.85
2024-02-02T19:03:57.733Z,22.75
2024-02-02T19:06:21.961Z,26.35
2024-02-02T19:08:45.864Z,21.25
2024-02-02T19:11:14.462Z,21.92
2024-02-02T19:13:39.656Z,23.80
2024-02-02T19:16:03.695Z,28.40
2024-02-02T19:18:27.940Z,21.50
2024-02-02T19:20:51.743Z,20.67
2024-02-02T19:23:15.617Z,20.00
2024-02-02T19:25:39.319Z,14.50
2024-02-02T19:28:03.073Z,22.92
2024-02-02T19:30:28.551Z,9.43
2024-02-02T19:32:53.085Z,19.83
2024-02-02T19:35:17.063Z,18.95
2024-02-02T19:37:40.891Z,17.33
2024-02-02T19:40:04.888Z,16.17
2024-02-02T19:42:28.748Z,17.70
2024-02-02T19:44:52.460Z,20.13
2024-02-02T19:47:19.093Z,15.40
2024-02-02T19:49:43.097Z,18.20
2024-02-02T19:52:07.549Z,15.48
2024-02-02T19:54:32.317Z,17.48
2024-02-02T19:56:56.107Z,17.10
2024-02-02T19:59:19.793Z,30.38
2024-02-02T20:01:48.352Z,17.02
2024-02-02T20:04:13.627Z,13.93
2024-02-02T20:06:37.712Z,14.68
2024-02-02T20:09:01.447Z,15.35
2024-02-02T20:11:27.075Z,15.50
2024-02-02T20:13:51.050Z,15.68
2024-02-02T20:16:17.475Z,16.08
2024-02-02T20:18:41.605Z,16.08
2024-02-02T20:21:07.770Z,16.08
2024-02-02T20:23:31.778Z,13.48
2024-02-02T20:25:55.720Z,15.25
2024-02-02T20:28:19.617Z,15.65
2024-02-02T20:30:43.620Z,16.25
2024-02-02T20:33:07.598Z,17.45
2024-02-02T20:35:32.804Z,14.77
2024-02-02T20:37:58.675Z,18.40
2024-02-02T20:40:22.489Z,18.02
2024-02-02T20:42:46.221Z,17.98
2024-02-02T20:45:10.625Z,16.02
2024-02-02T20:47:34.416Z,18.25
2024-02-02T20:49:58.345Z,15.30
2024-02-02T20:52:22.974Z,15.65
2024-02-02T20:54:48.364Z,16.45
2024-02-02T20:57:12.389Z,19.63
2024-02-02T20:59:36.234Z,16.85
2024-02-02T21:01:59.929Z,15.30
2024-02-02T21:04:23.829Z,18.77
2024-02-02T21:06:47.779Z,16.13
2024-02-02T21:09:11.841Z,14.90
2024-02-02T21:11:37.107Z,12.50
2024-02-02T21:14:00.843Z,15.02
2024-02-02T21:16:24.859Z,16.75
2024-02-02T21:18:51.145Z,14.70
2024-02-02T21:21:22.196Z,13.88
2024-02-02T21:23:48.299Z,15.15
2024-02-02T21:26:11.980Z,14.85
2024-02-02T21:28:38.591Z,14.70
2024-02-02T21:31:02.410Z,15.25
2024-02-02T21:33:26.465Z,13.02
2024-02-02T21:35:50.281Z,13.82
2024-02-02T21:38:14.165Z,11.75
2024-02-02T21:40:38.376Z,12.98
2024-02-02T21:43:02.231Z,13.70
2024-02-02T21:45:28.762Z,12.32
2024-02-02T21:47:52.685Z,12.27
2024-02-02T21:50:16.897Z,13.90
2024-02-02T21:52:42.389Z,13.13
2024-02-02T21:55:06.644Z,12.30
2024-02-02T21:57:30.464Z,9.95
2024-02-02T21:59:54.174Z,13.40
2024-02-02T22:02:19.823Z,15.70
2024-02-02T22:04:43.541Z,14.73
2024-02-02T22:07:07.406Z,13.75
2024-02-02T22:09:31.298Z,13.60
2024-02-02T22:11:55.150Z,15.45
2024-02-02T22:14:18.844Z,14.50
2024-02-02T22:16:42.681Z,14.48
2024-02-02T22:19:07.876Z,15.02
2024-02-02T22:21:31.883Z,15.75
2024-02-02T22:23:55.685Z,14.35
2024-02-02T22:26:20.852Z,15.32
2024-02-02T22:28:44.580Z,13.65
2024-02-02T22:31:08.463Z,14.98
2024-02-02T22:33:33.443Z,16.30
2024-02-02T22:35:59.358Z,14.82
2024-02-02T22:38:23.130Z,12.82
2024-02-02T22:40:46.905Z,14.50
2024-02-02T22:43:10.728Z,13.60
2024-02-02T22:45:34.478Z,13.70
2024-02-02T22:47:58.277Z,14.65
2024-02-02T22:50:22.120Z,14.32
2024-02-02T22:52:47.339Z,12.80
2024-02-02T22:55:11.397Z,12.77
2024-02-02T22:57:35.176Z,14.05
2024-02-02T23:00:02.624Z,13.10
2024-02-02T23:02:29.729Z,11.40
2024-02-02T23:04:53.475Z,11.27
2024-02-02T23:07:17.544Z,12.52
2024-02-02T23:09:43.048Z,11.30
2024-02-02T23:12:08.054Z,11.90
2024-02-02T23:14:31.931Z,11.07
2024-02-02T23:16:55.879Z,11.40
2024-02-02T23:19:19.967Z,12.18
2024-02-02T23:21:43.807Z,10.07
2024-02-02T23:24:08.552Z,11.20
2024-02-02T23:26:33.748Z,10.65
2024-02-02T23:28:57.504Z,10.13
2024-02-02T23:31:21.301Z,10.27
2024-02-02T23:33:45.149Z,10.20
2024-02-02T23:36:10.115Z,12.05
2024-02-02T23:38:33.870Z,10.18
2024-02-02T23:40:57.979Z,11.77
2024-02-02T23:43:22.059Z,8.88
2024-02-02T23:45:45.954Z,9.48
2024-02-02T23:48:09.952Z,9.60
2024-02-02T23:50:33.767Z,8.60
2024-02-02T23:52:57.651Z,8.52
2024-02-02T23:55:21.451Z,9.73
2024-02-02T23:57:45.525Z,9.07
